Time;durP1;ratioP1;P1;durP2;ratioP2;P2;SDS_P1;SDS_P2;PMS_P1;PMS_P2;Temp;Humidity;BMP_temperature;BMP_pressure;BME280_temperature;BME280_humidity;BME280_pressure;Samples;Min_cycle;Max_cycle;Signal;HPM_P1;HPM_P2
2022/12/19 00:00:02;;;;;;;3.83;3.60;;;-0.20;99.90;;;;;;5013351;28;20576;-62
2022/12/19 00:02:30;;;;;;;3.33;3.13;;;-0.10;99.90;;;;;;5004812;28;20299;-60
2022/12/19 00:04:57;;;;;;;3.27;3.07;;;0.00;99.90;;;;;;5012681;28;20198;-61
2022/12/19 00:07:23;;;;;;;2.77;2.67;;;0.10;99.90;;;;;;5013071;28;20676;-62
2022/12/19 00:09:50;;;;;;;3.50;3.30;;;0.20;99.90;;;;;;5013160;28;20316;-62
2022/12/19 00:12:17;;;;;;;3.83;3.53;;;0.30;99.90;;;;;;5013003;28;20211;-61
2022/12/19 00:14:44;;;;;;;4.90;4.60;;;0.20;99.90;;;;;;5012842;28;20240;-63
2022/12/19 00:17:11;;;;;;;5.50;5.10;;;0.20;99.90;;;;;;5012855;28;20225;-63
2022/12/19 00:19:39;;;;;;;5.17;4.87;;;0.10;99.90;;;;;;5013284;28;20221;-62
2022/12/19 00:22:06;;;;;;;6.70;6.30;;;0.10;99.90;;;;;;5014398;28;20611;-61
2022/12/19 00:24:33;;;;;;;7.43;6.93;;;0.00;99.90;;;;;;5013933;28;20259;-63
2022/12/19 00:27:00;;;;;;;6.50;6.00;;;-0.20;99.90;;;;;;5014165;28;20588;-63
2022/12/19 00:29:26;;;;;;;7.70;7.20;;;-0.40;99.90;;;;;;5013566;28;20221;-63
2022/12/19 00:31:53;;;;;;;6.77;6.27;;;-0.40;99.90;;;;;;5012753;28;20201;-61
2022/12/19 00:34:20;;;;;;;6.30;5.90;;;-0.40;99.90;;;;;;5012144;28;20212;-61
2022/12/19 00:36:48;;;;;;;6.60;6.13;;;-0.40;99.90;;;;;;5012906;28;20311;-63
2022/12/19 00:39:15;;;;;;;6.63;6.17;;;-0.40;99.90;;;;;;5013367;28;20232;-61
2022/12/19 00:41:42;;;;;;;7.43;6.83;;;-0.40;99.90;;;;;;5013666;28;20211;-61
2022/12/19 00:44:11;;;;;;;7.13;6.63;;;-0.40;99.90;;;;;;5012933;28;20219;-60
2022/12/19 00:46:38;;;;;;;7.23;6.77;;;-0.50;99.90;;;;;;5013813;28;20194;-63
2022/12/19 00:49:06;;;;;;;7.47;6.97;;;-0.60;99.90;;;;;;5018310;28;20229;-61
2022/12/19 00:51:35;;;;;;;7.30;6.80;;;-0.70;99.90;;;;;;5014260;28;20654;-61
2022/12/19 00:54:04;;;;;;;7.50;7.00;;;-0.70;99.90;;;;;;5012376;28;20292;-62
2022/12/19 00:56:32;;;;;;;8.17;7.57;;;-0.70;99.90;;;;;;5012369;28;20312;-62
2022/12/19 00:59:00;;;;;;;7.77;7.27;;;-0.70;99.90;;;;;;5008491;28;20243;-63
2022/12/19 01:01:29;;;;;;;7.23;6.80;;;-0.70;99.90;;;;;;5012967;28;20211;-61
2022/12/19 01:03:58;;;;;;;7.30;6.80;;;-0.60;99.90;;;;;;5012354;28;20240;-62
2022/12/19 01:06:25;;;;;;;6.73;6.33;;;-0.60;99.90;;;;;;5013527;28;20616;-63
2022/12/19 01:08:52;;;;;;;7.27;6.77;;;-0.50;99.90;;;;;;5013913;28;20233;-62
2022/12/19 01:12:44;;;;;;;7.37;6.87;;;-0.40;99.90;;;;;;5012962;28;20205;-61
2022/12/19 01:14:07;;;;;;;7.10;6.50;;;-0.30;99.90;;;;;;5010565;28;20212;-63
2022/12/19 01:16:34;;;;;;;7.30;6.80;;;-0.20;99.90;;;;;;5011462;28;20228;-62
2022/12/19 01:19:01;;;;;;;6.90;6.40;;;-0.20;99.90;;;;;;5011133;28;20225;-61
2022/12/19 01:21:28;;;;;;;7.20;6.70;;;-0.20;99.90;;;;;;5003757;28;20221;-62
2022/12/19 01:23:54;;;;;;;6.77;6.37;;;-0.20;99.90;;;;;;5009804;28;20201;-61
2022/12/19 01:26:23;;;;;;;7.10;6.60;;;-0.20;99.90;;;;;;5010321;28;20209;-60
2022/12/19 01:28:49;;;;;;;5.87;5.47;;;-0.20;99.90;;;;;;5010640;28;20225;-63
2022/12/19 01:31:16;;;;;;;5.50;5.20;;;0.00;99.90;;;;;;5009767;28;20211;-63
2022/12/19 01:33:43;;;;;;;5.37;5.00;;;0.00;99.90;;;;;;5010412;28;20701;-62
2022/12/19 01:36:10;;;;;;;5.10;4.80;;;0.10;99.90;;;;;;5020626;28;20267;-62
2022/12/19 01:38:37;;;;;;;4.97;4.57;;;0.10;99.90;;;;;;5029091;28;20288;-61
2022/12/19 01:41:05;;;;;;;5.50;5.10;;;0.20;99.90;;;;;;5017568;28;20217;-62
2022/12/19 01:43:54;;;;;;;4.50;4.20;;;0.20;99.90;;;;;;5028052;28;20241;-61
2022/12/19 01:46:25;;;;;;;4.13;3.83;;;0.30;99.90;;;;;;5019175;28;20304;-64
2022/12/19 01:48:53;;;;;;;3.53;3.33;;;0.40;99.90;;;;;;5017060;28;20739;-60
2022/12/19 01:51:24;;;;;;;3.70;3.40;;;0.50;99.90;;;;;;5012463;28;20201;-61
2022/12/19 01:53:54;;;;;;;3.40;3.20;;;0.60;99.90;;;;;;5012235;28;20228;-62
2022/12/19 01:56:25;;;;;;;4.07;3.87;;;0.70;99.90;;;;;;5012457;28;20264;-62
2022/12/19 01:58:56;;;;;;;6.03;5.63;;;0.70;99.90;;;;;;5013027;28;20247;-60
2022/12/19 02:01:24;;;;;;;5.50;5.13;;;0.70;99.90;;;;;;5012980;28;20295;-61
2022/12/19 02:03:51;;;;;;;5.13;4.80;;;0.80;99.90;;;;;;5010921;28;20306;-62
2022/12/19 02:06:19;;;;;;;5.30;4.90;;;0.80;99.90;;;;;;5013547;28;20229;-62
2022/12/19 02:08:48;;;;;;;5.53;5.17;;;0.80;99.90;;;;;;5013010;28;20239;-61
2022/12/19 02:11:15;;;;;;;5.67;5.27;;;0.70;99.90;;;;;;5013444;28;20223;-62
2022/12/19 02:13:43;;;;;;;5.80;5.40;;;0.80;99.90;;;;;;5012227;28;20204;-61
2022/12/19 02:16:19;;;;;;;5.97;5.57;;;0.80;99.90;;;;;;5013140;28;20287;-61
2022/12/19 02:18:53;;;;;;;6.40;6.00;;;0.80;99.90;;;;;;5011837;28;20224;-61
2022/12/19 02:21:40;;;;;;;5.90;5.50;;;0.80;99.90;;;;;;5010738;28;20292;-62
2022/12/19 02:24:40;;;;;;;5.67;5.27;;;0.70;99.90;;;;;;5010288;28;20201;-63
2022/12/19 02:27:26;;;;;;;5.10;4.80;;;0.50;99.90;;;;;;5010695;28;20256;-62
2022/12/19 02:30:15;;;;;;;5.30;4.90;;;0.50;99.90;;;;;;5006302;28;20225;-61
2022/12/19 02:32:56;;;;;;;5.47;5.07;;;0.60;99.90;;;;;;5007961;28;20661;-62
2022/12/19 02:35:30;;;;;;;4.90;4.60;;;0.70;99.90;;;;;;5011324;28;20216;-62
2022/12/19 02:38:08;;;;;;;5.37;5.07;;;0.80;99.90;;;;;;5011466;28;22033;-63
2022/12/19 02:40:41;;;;;;;5.27;4.97;;;0.80;99.90;;;;;;5003613;28;20208;-63
2022/12/19 02:43:10;;;;;;;5.43;5.03;;;0.90;99.90;;;;;;5014917;28;20407;-61
2022/12/19 02:45:39;;;;;;;5.37;5.07;;;0.90;99.90;;;;;;5010972;28;20216;-61
2022/12/19 02:48:08;;;;;;;5.53;5.20;;;0.90;99.90;;;;;;5010716;28;20270;-61
2022/12/19 02:50:39;;;;;;;5.83;5.33;;;0.80;99.90;;;;;;5012129;28;20208;-63
2022/12/19 02:53:06;;;;;;;5.27;4.97;;;0.90;99.90;;;;;;5010475;28;20205;-62
2022/12/19 02:55:39;;;;;;;6.07;5.67;;;0.90;99.90;;;;;;5011039;28;20205;-62
2022/12/19 02:58:29;;;;;;;5.70;5.30;;;0.90;99.90;;;;;;5010639;28;20229;-61
2022/12/19 03:01:04;;;;;;;5.72;5.32;;;0.90;99.90;;;;;;4992311;28;20728;-62
2022/12/19 03:03:43;;;;;;;4.67;4.37;;;0.90;99.90;;;;;;5006647;28;20251;-63
2022/12/19 03:06:19;;;;;;;5.00;4.70;;;1.00;99.90;;;;;;5022392;28;20215;-60
2022/12/19 03:08:53;;;;;;;5.00;4.70;;;1.20;99.90;;;;;;5011065;28;20239;-62
2022/12/19 03:11:22;;;;;;;5.17;4.87;;;1.30;99.90;;;;;;5010514;28;20209;-60
2022/12/19 03:13:55;;;;;;;5.40;5.10;;;1.40;99.90;;;;;;5009082;28;20197;-62
2022/12/19 03:16:22;;;;;;;4.33;4.03;;;1.40;99.90;;;;;;5010135;28;20596;-61
2022/12/19 03:18:50;;;;;;;4.93;4.63;;;1.40;99.90;;;;;;5010610;28;20229;-63
2022/12/19 03:21:23;;;;;;;4.53;4.23;;;1.40;99.90;;;;;;5010414;28;20201;-62
2022/12/19 03:23:52;;;;;;;4.67;4.37;;;1.50;99.90;;;;;;5009523;28;20201;-64
2022/12/19 03:26:21;;;;;;;4.40;4.10;;;1.50;99.90;;;;;;5014696;28;20208;-61
2022/12/19 03:28:52;;;;;;;4.53;4.23;;;1.50;99.90;;;;;;5014071;28;20225;-62
2022/12/19 03:31:21;;;;;;;4.80;4.50;;;1.60;99.90;;;;;;5013196;28;20567;-62
2022/12/19 03:33:55;;;;;;;4.07;3.87;;;1.60;99.90;;;;;;5013870;28;20696;-61
2022/12/19 03:36:27;;;;;;;4.67;4.37;;;1.70;99.90;;;;;;5010875;28;20707;-60
2022/12/19 03:38:56;;;;;;;4.37;4.07;;;1.70;99.90;;;;;;5006692;28;20252;-63
2022/12/19 03:44:08;;;;;;;4.83;4.53;;;1.70;99.90;;;;;;5021785;28;20283;-60
2022/12/19 03:46:39;;;;;;;3.53;3.33;;;1.70;99.90;;;;;;5014321;28;20280;-61
2022/12/19 03:49:07;;;;;;;3.50;3.20;;;1.70;99.90;;;;;;5012947;28;20225;-61
2022/12/19 03:51:43;;;;;;;3.27;3.07;;;1.70;99.90;;;;;;5011662;28;20211;-64
2022/12/19 03:54:15;;;;;;;3.50;3.30;;;1.80;99.90;;;;;;5013187;28;20681;-61
2022/12/19 03:56:48;;;;;;;2.60;2.50;;;1.90;99.90;;;;;;5014387;28;20308;-61
2022/12/19 03:59:19;;;;;;;3.10;2.90;;;2.00;99.90;;;;;;5013425;28;20255;-63
2022/12/19 04:01:46;;;;;;;3.40;3.20;;;2.00;99.90;;;;;;5013886;28;20231;-61
2022/12/19 04:04:15;;;;;;;3.47;3.27;;;2.00;99.90;;;;;;5013370;28;20633;-61
2022/12/19 04:06:44;;;;;;;4.33;4.03;;;2.00;99.90;;;;;;5014768;28;20205;-61
2022/12/19 04:09:12;;;;;;;5.50;5.20;;;2.00;99.90;;;;;;5017195;28;20244;-61
2022/12/19 04:11:43;;;;;;;5.50;5.20;;;1.80;99.90;;;;;;5015108;28;20198;-61
2022/12/19 04:14:16;;;;;;;4.93;4.63;;;1.60;99.90;;;;;;5013871;28;20213;-61
2022/12/19 04:16:47;;;;;;;4.93;4.63;;;1.60;99.90;;;;;;5013823;28;20601;-61
2022/12/19 04:19:20;;;;;;;4.73;4.43;;;1.60;99.90;;;;;;5014045;28;20237;-62
2022/12/19 04:21:52;;;;;;;5.07;4.77;;;1.70;99.90;;;;;;5013679;28;20205;-62
2022/12/19 04:24:25;;;;;;;4.70;4.40;;;1.70;99.90;;;;;;5012953;28;20216;-63
2022/12/19 04:26:54;;;;;;;4.40;4.10;;;1.70;99.90;;;;;;5013445;28;20204;-61
2022/12/19 04:29:22;;;;;;;4.60;4.30;;;1.70;99.90;;;;;;5013551;28;20225;-62
2022/12/19 04:31:49;;;;;;;4.30;4.00;;;1.80;99.90;;;;;;5013227;28;20202;-62
2022/12/19 04:34:20;;;;;;;4.80;4.27;;;1.80;99.90;;;;;;5012339;28;20304;-61
2022/12/19 04:36:48;;;;;;;3.90;3.70;;;1.80;99.90;;;;;;5011929;28;20817;-61
2022/12/19 04:39:15;;;;;;;4.40;4.10;;;1.80;99.90;;;;;;5012204;28;20236;-61
2022/12/19 04:41:42;;;;;;;3.60;3.40;;;1.90;99.90;;;;;;5012591;28;20204;-62
2022/12/19 04:44:08;;;;;;;4.27;3.97;;;1.90;99.90;;;;;;5012028;28;20552;-63
2022/12/19 04:46:35;;;;;;;3.50;3.30;;;2.00;99.90;;;;;;5012219;28;20197;-61
2022/12/19 04:49:02;;;;;;;4.00;3.80;;;2.00;99.90;;;;;;5012031;28;20227;-63
2022/12/19 04:51:30;;;;;;;4.20;3.90;;;2.00;99.90;;;;;;5004538;28;20197;-60
2022/12/19 04:53:57;;;;;;;4.00;3.80;;;2.00;99.90;;;;;;5011816;28;20250;-60
2022/12/19 04:56:24;;;;;;;4.07;3.87;;;2.00;99.90;;;;;;5012291;28;20215;-60
2022/12/19 04:58:56;;;;;;;4.73;4.43;;;2.00;99.90;;;;;;5012444;28;20224;-61
2022/12/19 05:01:23;;;;;;;4.60;4.30;;;2.00;99.90;;;;;;5012749;28;20214;-61
2022/12/19 05:03:50;;;;;;;4.27;3.97;;;2.00;99.90;;;;;;5012254;28;20204;-61
2022/12/19 05:06:18;;;;;;;5.03;4.70;;;2.00;99.90;;;;;;5013808;28;20623;-62
2022/12/19 05:08:47;;;;;;;4.60;4.30;;;2.00;99.90;;;;;;5013465;28;20224;-61
2022/12/19 05:11:15;;;;;;;4.53;4.23;;;2.00;99.90;;;;;;5012917;28;20622;-62
2022/12/19 05:13:42;;;;;;;4.93;4.63;;;2.00;99.90;;;;;;5011650;28;20206;-61
2022/12/19 05:16:12;;;;;;;4.53;4.23;;;2.10;99.90;;;;;;5012016;28;20217;-61
2022/12/19 05:18:39;;;;;;;3.90;3.70;;;2.10;99.90;;;;;;5012112;28;20228;-63
2022/12/19 05:21:07;;;;;;;4.43;4.13;;;2.10;99.90;;;;;;5018276;28;20308;-62
2022/12/19 05:23:37;;;;;;;4.10;3.87;;;2.20;99.90;;;;;;5027607;28;20232;-62
2022/12/19 05:26:06;;;;;;;3.97;3.67;;;2.20;99.90;;;;;;5026364;28;20313;-60
2022/12/19 05:28:34;;;;;;;3.63;3.43;;;2.20;99.90;;;;;;5016327;28;20304;-62
2022/12/19 05:31:06;;;;;;;3.97;3.70;;;2.30;99.90;;;;;;5012219;28;20201;-60
2022/12/19 05:33:34;;;;;;;3.80;3.60;;;2.40;99.90;;;;;;5007557;28;20666;-62
2022/12/19 05:36:00;;;;;;;3.90;3.70;;;2.50;99.90;;;;;;5011756;28;20235;-62
2022/12/19 05:38:28;;;;;;;4.37;4.07;;;2.50;99.90;;;;;;5011695;28;20240;-62
2022/12/19 05:40:55;;;;;;;4.17;3.90;;;2.50;99.90;;;;;;5012380;28;20255;-62
2022/12/19 05:43:24;;;;;;;4.10;3.90;;;2.50;99.90;;;;;;5012157;28;20197;-62
2022/12/19 05:45:50;;;;;;;3.67;3.47;;;2.50;99.90;;;;;;5011765;28;20205;-61
2022/12/19 05:48:17;;;;;;;3.27;3.07;;;2.40;99.90;;;;;;5010618;28;20316;-61
2022/12/19 05:50:48;;;;;;;2.60;2.50;;;2.40;99.90;;;;;;5011411;28;20237;-61
2022/12/19 05:53:14;;;;;;;2.93;2.77;;;2.30;99.90;;;;;;5011387;28;20205;-62
2022/12/19 05:55:41;;;;;;;2.27;2.17;;;2.40;99.90;;;;;;5027271;28;20273;-61
2022/12/19 05:58:08;;;;;;;2.57;2.47;;;2.40;99.90;;;;;;5023540;28;20229;-61
2022/12/19 06:00:36;;;;;;;2.30;2.20;;;2.50;99.90;;;;;;5009545;28;20209;-62
2022/12/19 06:03:04;;;;;;;2.70;2.50;;;2.50;99.90;;;;;;5010607;28;20263;-62
2022/12/19 06:05:31;;;;;;;3.53;3.33;;;2.50;99.90;;;;;;5012125;28;20216;-61
2022/12/19 06:07:58;;;;;;;3.87;3.67;;;2.40;99.90;;;;;;5012052;28;20201;-60
2022/12/19 06:10:24;;;;;;;4.20;3.90;;;2.40;99.90;;;;;;5013867;28;20295;-62
2022/12/19 06:12:51;;;;;;;4.43;4.13;;;2.20;99.90;;;;;;5011298;28;20359;-62
2022/12/19 06:15:18;;;;;;;3.87;3.67;;;2.20;99.90;;;;;;5009438;28;20293;-62
2022/12/19 06:17:46;;;;;;;3.77;3.57;;;2.10;99.90;;;;;;5010806;28;20271;-63
2022/12/19 06:20:13;;;;;;;4.13;3.83;;;2.10;99.90;;;;;;5011300;28;20231;-61
2022/12/19 06:22:40;;;;;;;4.03;3.73;;;2.10;99.90;;;;;;5010329;28;20858;-63
2022/12/19 06:25:08;;;;;;;3.73;3.53;;;2.10;99.90;;;;;;5010449;28;20255;-63
2022/12/19 06:27:35;;;;;;;3.67;3.47;;;2.20;99.90;;;;;;5010842;28;20202;-62
2022/12/19 06:30:01;;;;;;;4.07;3.87;;;2.20;99.90;;;;;;5010399;28;20670;-62
2022/12/19 06:32:28;;;;;;;4.13;3.83;;;2.20;99.90;;;;;;5002196;28;20205;-63
2022/12/19 06:34:57;;;;;;;3.03;2.83;;;2.30;99.90;;;;;;5010375;28;20923;-62
2022/12/19 06:37:23;;;;;;;3.63;3.43;;;2.30;99.90;;;;;;5008085;28;20253;-63
2022/12/19 06:39:51;;;;;;;3.90;3.60;;;2.50;99.90;;;;;;5007677;28;20228;-64
2022/12/19 06:42:22;;;;;;;4.10;3.90;;;2.60;99.90;;;;;;5010722;28;20574;-62
2022/12/19 06:44:50;;;;;;;3.43;3.23;;;2.60;99.90;;;;;;5007693;28;20205;-63
2022/12/19 06:47:17;;;;;;;3.47;3.27;;;2.70;99.90;;;;;;5009706;28;20205;-64
2022/12/19 06:49:44;;;;;;;3.53;3.33;;;2.70;99.90;;;;;;5009475;28;20228;-64
2022/12/19 06:52:12;;;;;;;3.47;3.27;;;2.80;99.90;;;;;;5009578;28;20231;-63
2022/12/19 06:54:40;;;;;;;3.40;3.20;;;2.70;99.90;;;;;;5007179;28;20243;-62
2022/12/19 06:57:06;;;;;;;3.17;2.97;;;2.80;99.90;;;;;;5009835;28;20294;-63
2022/12/19 06:59:33;;;;;;;3.40;3.20;;;2.80;99.90;;;;;;5011206;28;20235;-63
2022/12/19 07:02:05;;;;;;;3.43;3.23;;;2.70;99.90;;;;;;5014266;28;20236;-64
2022/12/19 07:04:36;;;;;;;3.13;2.93;;;2.80;99.90;;;;;;5008767;28;20285;-64
2022/12/19 07:07:03;;;;;;;3.07;2.90;;;2.80;99.90;;;;;;5012727;28;20689;-62
2022/12/19 07:09:33;;;;;;;3.20;3.00;;;2.90;99.90;;;;;;5006809;28;20315;-63
2022/12/19 07:12:00;;;;;;;2.70;2.60;;;2.90;99.90;;;;;;5013567;28;20267;-65
2022/12/19 07:14:27;;;;;;;3.23;3.03;;;2.90;99.90;;;;;;5011820;28;20202;-64
2022/12/19 07:16:55;;;;;;;3.93;3.63;;;2.90;99.90;;;;;;5013699;28;20216;-63
2022/12/19 07:19:22;;;;;;;3.70;3.50;;;2.80;99.90;;;;;;5013899;28;20764;-63
2022/12/19 07:21:49;;;;;;;4.07;3.77;;;2.70;99.90;;;;;;5014300;28;20213;-63
2022/12/19 07:24:16;;;;;;;4.07;3.77;;;2.70;99.90;;;;;;5012508;28;20209;-64
2022/12/19 07:26:45;;;;;;;3.97;3.67;;;2.60;99.90;;;;;;5013834;28;20205;-63
2022/12/19 07:29:13;;;;;;;3.43;3.27;;;2.60;99.90;;;;;;5011870;28;20233;-64
2022/12/19 07:31:40;;;;;;;3.17;2.97;;;2.50;99.90;;;;;;5011128;28;20212;-66
2022/12/19 07:34:06;;;;;;;3.30;3.10;;;2.50;99.90;;;;;;5013422;28;20205;-64
2022/12/19 07:36:33;;;;;;;3.40;3.20;;;2.60;99.90;;;;;;5013869;28;20215;-62
2022/12/19 07:39:00;;;;;;;3.13;2.93;;;2.70;99.90;;;;;;5012642;28;20225;-63
2022/12/19 07:41:27;;;;;;;3.30;3.10;;;2.80;99.90;;;;;;5013286;28;20231;-64
2022/12/19 07:43:55;;;;;;;3.00;2.80;;;2.80;99.90;;;;;;5012998;28;20205;-64
2022/12/19 07:46:22;;;;;;;3.40;3.20;;;2.80;99.90;;;;;;5012987;28;20216;-64
2022/12/19 07:48:49;;;;;;;3.20;3.00;;;2.80;99.90;;;;;;5011407;28;20213;-64
2022/12/19 07:51:16;;;;;;;3.20;3.00;;;2.90;99.90;;;;;;5012035;28;20267;-63
2022/12/19 07:53:43;;;;;;;3.20;3.00;;;2.90;99.90;;;;;;5012270;28;20201;-63
2022/12/19 07:56:09;;;;;;;3.80;3.60;;;2.90;99.90;;;;;;5013071;28;20284;-62
2022/12/19 07:58:36;;;;;;;3.50;3.30;;;3.00;99.90;;;;;;5013244;28;20233;-64
2022/12/19 08:01:05;;;;;;;3.30;3.10;;;3.10;99.90;;;;;;5013523;28;20201;-62
2022/12/19 08:03:32;;;;;;;3.20;3.00;;;3.00;99.90;;;;;;5005924;28;20217;-64
2022/12/19 08:06:03;;;;;;;3.23;3.03;;;3.00;99.90;;;;;;5023788;28;20225;-63
2022/12/19 08:08:30;;;;;;;2.70;2.60;;;3.00;99.90;;;;;;5018605;28;20304;-64
2022/12/19 08:10:57;;;;;;;1.97;1.87;;;3.00;99.90;;;;;;5012549;28;20207;-65
2022/12/19 08:13:24;;;;;;;2.00;1.90;;;3.00;99.90;;;;;;5012465;28;20248;-64
2022/12/19 08:15:51;;;;;;;1.40;1.40;;;3.00;99.90;;;;;;5013508;28;20289;-63
2022/12/19 08:18:19;;;;;;;2.10;2.00;;;3.00;99.90;;;;;;5012810;28;20255;-63
2022/12/19 08:20:46;;;;;;;1.97;1.87;;;3.10;99.90;;;;;;5012701;28;20204;-63
2022/12/19 08:23:13;;;;;;;2.03;1.93;;;3.20;99.90;;;;;;5012060;28;20217;-63
2022/12/19 08:25:40;;;;;;;1.50;1.50;;;3.20;99.90;;;;;;5013375;28;20202;-64
2022/12/19 08:28:07;;;;;;;1.90;1.80;;;3.30;99.90;;;;;;5013433;28;20341;-63
2022/12/19 08:30:33;;;;;;;1.60;1.50;;;3.30;99.90;;;;;;5013161;28;20631;-62
2022/12/19 08:33:00;;;;;;;1.40;1.30;;;3.30;99.90;;;;;;5012773;28;20209;-63
2022/12/19 08:35:28;;;;;;;1.57;1.50;;;3.40;99.90;;;;;;5012828;28;20239;-64
2022/12/19 08:37:55;;;;;;;1.40;1.40;;;3.40;99.90;;;;;;5012715;28;20335;-64
2022/12/19 08:40:23;;;;;;;1.30;1.30;;;3.40;99.90;;;;;;5012510;28;20252;-62
2022/12/19 08:42:50;;;;;;;1.70;1.60;;;3.40;99.90;;;;;;5012427;28;20198;-63
2022/12/19 08:45:17;;;;;;;1.30;1.30;;;3.40;99.90;;;;;;5012333;28;20612;-64
2022/12/19 08:47:44;;;;;;;1.42;1.42;;;3.60;99.90;;;;;;5012752;28;20205;-63
2022/12/19 08:50:12;;;;;;;1.47;1.47;;;3.60;99.90;;;;;;5012994;28;20216;-63
2022/12/19 08:52:41;;;;;;;1.27;1.27;;;3.70;99.90;;;;;;5012598;28;20263;-64
2022/12/19 08:55:09;;;;;;;1.47;1.43;;;3.80;99.90;;;;;;5012968;28;20205;-64
2022/12/19 08:57:36;;;;;;;1.30;1.30;;;3.90;99.90;;;;;;5012946;28;20218;-64
2022/12/19 09:00:04;;;;;;;1.80;1.70;;;4.00;99.90;;;;;;5013916;28;20316;-63
2022/12/19 09:02:31;;;;;;;1.80;1.70;;;4.00;99.90;;;;;;5013561;28;20592;-64
2022/12/19 09:04:58;;;;;;;1.60;1.50;;;4.10;99.90;;;;;;5018731;28;20217;-62
2022/12/19 09:07:25;;;;;;;1.40;1.40;;;4.10;99.90;;;;;;5021283;28;20639;-63
2022/12/19 09:09:54;;;;;;;2.10;2.00;;;4.20;99.90;;;;;;5019408;28;20224;-63
2022/12/19 09:12:20;;;;;;;1.63;1.53;;;4.20;99.90;;;;;;5018000;28;20216;-63
2022/12/19 09:14:47;;;;;;;1.70;1.60;;;4.30;99.90;;;;;;5019995;28;20289;-64
2022/12/19 09:17:14;;;;;;;2.00;1.90;;;4.30;99.90;;;;;;5022104;28;20219;-64
2022/12/19 09:19:41;;;;;;;1.50;1.50;;;4.30;99.90;;;;;;5018441;28;20235;-63
2022/12/19 09:22:08;;;;;;;1.53;1.50;;;4.40;99.90;;;;;;5011349;28;20227;-62
2022/12/19 09:24:35;;;;;;;1.80;1.70;;;4.60;99.90;;;;;;5011792;28;20674;-63
2022/12/19 09:27:03;;;;;;;2.80;2.60;;;4.50;99.90;;;;;;5009037;28;20224;-62
2022/12/19 09:29:30;;;;;;;1.97;1.87;;;4.50;99.90;;;;;;5011825;28;20652;-63
2022/12/19 09:31:57;;;;;;;2.00;1.90;;;4.60;99.90;;;;;;5011630;28;20682;-63
2022/12/19 09:34:25;;;;;;;1.83;1.73;;;4.60;99.90;;;;;;5010920;28;20621;-63
2022/12/19 09:36:52;;;;;;;1.97;1.87;;;4.60;99.90;;;;;;5009038;28;20207;-62
2022/12/19 09:39:19;;;;;;;2.03;1.93;;;4.60;99.90;;;;;;5011002;28;20312;-62
2022/12/19 09:42:15;;;;;;;2.10;2.00;;;4.60;99.90;;;;;;5011499;28;20284;-62
2022/12/19 09:44:57;;;;;;;2.47;2.37;;;4.50;99.90;;;;;;5009590;28;20671;-62
2022/12/19 09:47:28;;;;;;;2.80;2.70;;;4.60;99.90;;;;;;5011544;28;20226;-63
2022/12/19 09:49:55;;;;;;;2.93;2.73;;;4.50;99.90;;;;;;5009151;28;20217;-63
2022/12/19 09:52:26;;;;;;;3.80;3.60;;;4.40;99.90;;;;;;5011693;28;20658;-63
2022/12/19 09:54:57;;;;;;;2.33;2.23;;;4.40;99.90;;;;;;5011960;28;20205;-63
2022/12/19 09:57:39;;;;;;;2.30;2.20;;;4.50;99.90;;;;;;5009460;28;20241;-63
2022/12/19 10:00:10;;;;;;;2.60;2.10;;;4.60;99.90;;;;;;5005637;28;20653;-63
2022/12/19 10:02:43;;;;;;;1.90;1.80;;;4.80;99.90;;;;;;5010143;28;20285;-63
2022/12/19 10:05:17;;;;;;;1.70;1.60;;;4.90;99.90;;;;;;5010143;28;20235;-63
2022/12/19 10:07:45;;;;;;;1.17;1.17;;;5.00;99.90;;;;;;5010440;28;20270;-63
2022/12/19 10:10:15;;;;;;;1.03;1.03;;;5.00;99.90;;;;;;5011729;28;20583;-62
2022/12/19 10:13:02;;;;;;;1.00;1.00;;;5.00;99.90;;;;;;5011827;28;20259;-63
2022/12/19 10:15:41;;;;;;;1.20;1.20;;;5.00;99.90;;;;;;5017850;28;20444;-63
2022/12/19 10:18:34;;;;;;;1.30;1.30;;;5.10;99.90;;;;;;5015374;28;20608;-63
2022/12/19 10:21:06;;;;;;;1.27;1.20;;;5.00;99.90;;;;;;5011051;28;20217;-63
2022/12/19 10:24:14;;;;;;;1.33;1.23;;;5.10;99.90;;;;;;5010659;28;20198;-63
2022/12/19 10:26:46;;;;;;;1.20;1.20;;;5.20;99.90;;;;;;4980082;28;20258;-63
2022/12/19 10:29:35;;;;;;;1.20;1.20;;;5.30;99.90;;;;;;5009110;28;20221;-62
2022/12/19 10:32:07;;;;;;;1.30;1.30;;;5.40;99.90;;;;;;5011693;28;20552;-64
2022/12/19 10:34:40;;;;;;;1.40;1.40;;;5.40;99.90;;;;;;5002812;28;20197;-63
2022/12/19 10:37:16;;;;;;;1.40;1.40;;;5.60;99.90;;;;;;5009301;28;20871;-62
2022/12/19 10:39:59;;;;;;;1.20;1.20;;;5.60;99.90;;;;;;5009518;28;20221;-63
2022/12/19 10:42:34;;;;;;;1.20;1.20;;;5.70;99.90;;;;;;5008654;28;20205;-62
2022/12/19 10:45:12;;;;;;;1.20;1.20;;;5.80;99.90;;;;;;5012622;28;20205;-62
2022/12/19 10:47:40;;;;;;;1.83;1.73;;;6.00;99.90;;;;;;5011813;28;20233;-62
2022/12/19 10:50:12;;;;;;;2.33;2.23;;;6.10;99.90;;;;;;5009874;28;20236;-63
2022/12/19 10:52:51;;;;;;;3.43;3.23;;;6.20;99.90;;;;;;5010040;28;20204;-63
2022/12/19 10:55:37;;;;;;;3.10;2.90;;;6.20;99.90;;;;;;5009864;28;20300;-62
2022/12/19 10:58:17;;;;;;;2.80;2.60;;;6.00;99.90;;;;;;5009889;28;20233;-63
2022/12/19 11:00:58;;;;;;;2.40;2.27;;;5.90;99.90;;;;;;5010778;28;20189;-63
2022/12/19 11:03:25;;;;;;;2.40;2.30;;;5.90;99.90;;;;;;5007537;28;20211;-63
2022/12/19 11:05:54;;;;;;;2.50;2.30;;;6.00;99.90;;;;;;5012114;28;20292;-63
2022/12/19 11:08:24;;;;;;;2.33;2.23;;;6.00;99.90;;;;;;5010226;28;20729;-61
2022/12/19 11:10:54;;;;;;;2.40;2.30;;;6.00;99.90;;;;;;5012114;28;20297;-64
2022/12/19 11:13:24;;;;;;;2.60;2.50;;;6.00;99.90;;;;;;5011771;28;20260;-63
2022/12/19 11:15:55;;;;;;;2.50;2.40;;;5.90;99.90;;;;;;5013317;28;20574;-63
2022/12/19 11:18:22;;;;;;;2.33;2.17;;;6.00;99.90;;;;;;5010798;28;20225;-63
2022/12/19 11:20:59;;;;;;;2.20;2.10;;;6.00;99.90;;;;;;5012586;28;20198;-63
2022/12/19 11:23:27;;;;;;;2.30;2.20;;;6.00;99.90;;;;;;5010899;28;20205;-64
2022/12/19 11:25:57;;;;;;;2.87;2.77;;;5.90;99.90;;;;;;5011388;28;20201;-64
2022/12/19 11:28:29;;;;;;;2.50;2.40;;;5.90;99.90;;;;;;5009982;28;20221;-64
2022/12/19 11:31:04;;;;;;;2.40;2.30;;;5.90;99.90;;;;;;5004492;28;20214;-63
2022/12/19 11:33:31;;;;;;;2.80;2.60;;;5.80;99.90;;;;;;5007775;28;20692;-63
2022/12/19 11:36:00;;;;;;;2.70;2.60;;;5.90;99.90;;;;;;5012265;28;20220;-63
2022/12/19 11:38:36;;;;;;;2.40;2.30;;;6.00;99.90;;;;;;5011316;28;20271;-63
2022/12/19 11:41:11;;;;;;;2.30;2.20;;;6.10;99.90;;;;;;5024253;28;20202;-63
2022/12/19 11:43:47;;;;;;;2.57;2.47;;;6.10;99.90;;;;;;5021681;28;20292;-64
2022/12/19 11:46:37;;;;;;;2.50;2.40;;;6.10;99.90;;;;;;5024892;28;20227;-62
2022/12/19 11:49:10;;;;;;;2.63;2.53;;;6.20;99.90;;;;;;5026994;28;20217;-64
2022/12/19 11:51:43;;;;;;;2.87;2.67;;;6.30;99.90;;;;;;5022130;28;20197;-64
2022/12/19 11:54:17;;;;;;;2.47;2.37;;;6.40;99.90;;;;;;5020908;28;20206;-62
2022/12/19 11:56:44;;;;;;;3.60;3.40;;;6.50;99.90;;;;;;5021558;28;20214;-63
2022/12/19 11:59:18;;;;;;;2.87;2.77;;;6.50;99.90;;;;;;5013623;28;20229;-63
2022/12/19 12:02:15;;;;;;;3.40;3.20;;;6.50;99.90;;;;;;5008143;28;20279;-63
2022/12/19 12:05:05;;;;;;;2.90;2.70;;;6.50;99.90;;;;;;5010469;28;20293;-64
2022/12/19 12:07:35;;;;;;;3.20;2.90;;;6.60;99.90;;;;;;5008161;28;20241;-63
2022/12/19 12:10:13;;;;;;;2.70;2.50;;;6.60;99.90;;;;;;5014591;28;20316;-63
2022/12/19 12:12:54;;;;;;;2.40;2.30;;;6.70;99.90;;;;;;5015309;28;20275;-63
2022/12/19 12:15:37;;;;;;;2.20;2.10;;;6.80;99.90;;;;;;5014769;28;20301;-64
2022/12/19 12:18:14;;;;;;;2.20;2.10;;;6.80;99.90;;;;;;5010629;28;20241;-63
2022/12/19 12:20:47;;;;;;;2.90;2.80;;;6.80;99.90;;;;;;5014147;28;20225;-64
2022/12/19 12:23:24;;;;;;;2.63;2.50;;;6.70;99.90;;;;;;5018201;28;20300;-64
2022/12/19 12:25:59;;;;;;;2.60;2.50;;;6.60;99.90;;;;;;5014762;28;20205;-63
2022/12/19 12:28:55;;;;;;;2.83;2.70;;;6.60;99.90;;;;;;5020312;28;20233;-63
2022/12/19 12:31:32;;;;;;;2.60;2.50;;;6.50;99.90;;;;;;5020635;28;20212;-64
2022/12/19 12:34:17;;;;;;;2.90;2.70;;;6.40;99.90;;;;;;5013281;28;20287;-64
2022/12/19 12:36:53;;;;;;;3.03;2.83;;;6.40;99.90;;;;;;5007780;28;20297;-62
2022/12/19 12:39:25;;;;;;;3.03;2.83;;;6.30;99.90;;;;;;5017792;28;20233;-63
2022/12/19 12:42:06;;;;;;;2.70;2.60;;;6.10;99.90;;;;;;5011412;28;20681;-64
2022/12/19 12:44:35;;;;;;;3.10;2.90;;;6.10;99.90;;;;;;5004465;28;20527;-62
2022/12/19 12:47:10;;;;;;;2.63;2.53;;;6.00;99.90;;;;;;5011702;28;20292;-63
2022/12/19 12:49:42;;;;;;;3.07;2.77;;;5.90;99.90;;;;;;5021732;28;20300;-63
2022/12/19 12:52:15;;;;;;;2.80;2.60;;;5.90;99.90;;;;;;5022527;28;20208;-63
2022/12/19 12:54:44;;;;;;;2.80;2.70;;;5.80;99.90;;;;;;5017560;28;20672;-63
2022/12/19 12:57:19;;;;;;;2.83;2.73;;;5.80;99.90;;;;;;5012116;28;20217;-65
2022/12/19 12:59:47;;;;;;;2.40;2.30;;;5.90;99.90;;;;;;5011793;28;20679;-64
2022/12/19 13:02:18;;;;;;;3.03;2.93;;;5.90;99.90;;;;;;5011559;28;20220;-62
2022/12/19 13:04:58;;;;;;;2.57;2.47;;;5.90;99.90;;;;;;5010646;28;20202;-63
2022/12/19 13:07:34;;;;;;;2.93;2.83;;;6.00;99.90;;;;;;5013605;28;20582;-64
2022/12/19 13:10:24;;;;;;;2.80;2.60;;;6.00;99.90;;;;;;5013913;28;20433;-64
2022/12/19 13:12:59;;;;;;;2.80;2.70;;;6.00;99.90;;;;;;5008356;28;20194;-63
2022/12/19 13:15:40;;;;;;;3.20;3.00;;;6.10;99.90;;;;;;5013559;28;20197;-64